Terminal Aerodrome Forecast
Issued by NWS Cleveland, OH

Home | Current Version | Previous Version | Text Only | Print | Product List | Glossary Off
Versions: 1 2 3 4 5 6 7 8 9 10 11 12 13 14 15 16

000
FTUS41 KCLE 152320
TAFTOL
TAF
KTOL 152320Z 1600/1624 31006KT 2SM -RA BR OVC009
      TEMPO 1600/1602 3/4SM BR OVC011
     FM160500 32006KT 5SM BR SCT007 OVC012
     FM161100 32012KT P6SM OVC015
     FM161600 32013KT P6SM BKN030
     FM162000 31011KT P6SM SCT035=

USA.gov is the U.S. government's official web portal to all federal, state and local government web resources and services.